sensor_id;sensor_type;location;lat;lon;timestamp;P1;durP1;ratioP1;P2;durP2;ratioP2
58966;SDS011;44744;51.894;5.080;2022-07-12T00:00:55;6.80;;;4.80;;
58966;SDS011;44744;51.894;5.080;2022-07-12T00:01:56;6.90;;;4.70;;
58966;SDS011;44744;51.894;5.080;2022-07-12T00:02:59;6.80;;;4.30;;
58966;SDS011;44744;51.894;5.080;2022-07-12T00:03:59;7.10;;;4.50;;
58966;SDS011;44744;51.894;5.080;2022-07-12T00:05:05;6.40;;;3.80;;
58966;SDS011;44744;51.894;5.080;2022-07-12T00:06:05;6.70;;;4.40;;
58966;SDS011;44744;51.894;5.080;2022-07-12T00:07:06;6.90;;;3.80;;
58966;SDS011;44744;51.894;5.080;2022-07-12T00:08:06;5.00;;;3.60;;
58966;SDS011;44744;51.894;5.080;2022-07-12T00:09:07;6.60;;;3.70;;
58966;SDS011;44744;51.894;5.080;2022-07-12T00:10:07;5.60;;;3.70;;
58966;SDS011;44744;51.894;5.080;2022-07-12T00:11:08;6.30;;;4.00;;
58966;SDS011;44744;51.894;5.080;2022-07-12T00:12:08;5.70;;;4.00;;
58966;SDS011;44744;51.894;5.080;2022-07-12T00:14:59;5.60;;;3.70;;
58966;SDS011;44744;51.894;5.080;2022-07-12T00:16:08;6.90;;;3.90;;
58966;SDS011;44744;51.894;5.080;2022-07-12T00:17:08;6.10;;;3.30;;
58966;SDS011;44744;51.894;5.080;2022-07-12T00:19:34;5.70;;;3.90;;
58966;SDS011;44744;51.894;5.080;2022-07-12T00:20:34;4.70;;;3.60;;
58966;SDS011;44744;51.894;5.080;2022-07-12T00:21:37;4.90;;;3.70;;
58966;SDS011;44744;51.894;5.080;2022-07-12T00:22:37;4.70;;;3.50;;
58966;SDS011;44744;51.894;5.080;2022-07-12T00:23:40;4.90;;;3.10;;
58966;SDS011;44744;51.894;5.080;2022-07-12T00:24:53;4.40;;;3.10;;
58966;SDS011;44744;51.894;5.080;2022-07-12T00:25:54;4.40;;;2.90;;
58966;SDS011;44744;51.894;5.080;2022-07-12T00:26:55;3.20;;;2.90;;
58966;SDS011;44744;51.894;5.080;2022-07-12T00:27:55;4.40;;;3.30;;
58966;SDS011;44744;51.894;5.080;2022-07-12T00:28:59;5.40;;;3.30;;
58966;SDS011;44744;51.894;5.080;2022-07-12T00:30:02;3.70;;;2.80;;
58966;SDS011;44744;51.894;5.080;2022-07-12T00:31:04;4.90;;;2.80;;
58966;SDS011;44744;51.894;5.080;2022-07-12T00:32:08;3.90;;;2.90;;
58966;SDS011;44744;51.894;5.080;2022-07-12T00:33:08;4.90;;;2.80;;
58966;SDS011;44744;51.894;5.080;2022-07-12T00:34:11;4.00;;;2.70;;
58966;SDS011;44744;51.894;5.080;2022-07-12T00:35:12;4.60;;;2.80;;
58966;SDS011;44744;51.894;5.080;2022-07-12T00:36:21;4.10;;;3.20;;
58966;SDS011;44744;51.894;5.080;2022-07-12T00:37:22;4.40;;;3.20;;
58966;SDS011;44744;51.894;5.080;2022-07-12T00:38:25;6.20;;;3.40;;
58966;SDS011;44744;51.894;5.080;2022-07-12T00:39:25;3.90;;;2.80;;
58966;SDS011;44744;51.894;5.080;2022-07-12T00:40:25;3.90;;;3.00;;
58966;SDS011;44744;51.894;5.080;2022-07-12T00:41:28;4.30;;;2.90;;
58966;SDS011;44744;51.894;5.080;2022-07-12T00:42:36;3.50;;;2.90;;
58966;SDS011;44744;51.894;5.080;2022-07-12T00:44:53;4.60;;;3.00;;
58966;SDS011;44744;51.894;5.080;2022-07-12T00:45:56;3.90;;;2.70;;
58966;SDS011;44744;51.894;5.080;2022-07-12T00:46:57;3.70;;;2.60;;
58966;SDS011;44744;51.894;5.080;2022-07-12T00:48:00;3.20;;;2.70;;
58966;SDS011;44744;51.894;5.080;2022-07-12T00:49:01;3.80;;;2.80;;
58966;SDS011;44744;51.894;5.080;2022-07-12T00:50:03;4.80;;;3.00;;
58966;SDS011;44744;51.894;5.080;2022-07-12T00:51:08;4.20;;;2.80;;
58966;SDS011;44744;51.894;5.080;2022-07-12T00:52:08;3.20;;;2.60;;
58966;SDS011;44744;51.894;5.080;2022-07-12T00:53:11;3.40;;;2.80;;
58966;SDS011;44744;51.894;5.080;2022-07-12T00:54:14;3.20;;;2.60;;
58966;SDS011;44744;51.894;5.080;2022-07-12T00:55:18;3.30;;;2.80;;
58966;SDS011;44744;51.894;5.080;2022-07-12T00:56:19;3.80;;;2.80;;
58966;SDS011;44744;51.894;5.080;2022-07-12T00:57:20;4.90;;;3.30;;
58966;SDS011;44744;51.894;5.080;2022-07-12T00:58:21;5.40;;;3.00;;
58966;SDS011;44744;51.894;5.080;2022-07-12T00:59:33;4.10;;;2.90;;
58966;SDS011;44744;51.894;5.080;2022-07-12T01:00:37;4.30;;;3.00;;
58966;SDS011;44744;51.894;5.080;2022-07-12T01:01:40;3.80;;;2.90;;
58966;SDS011;44744;51.894;5.080;2022-07-12T01:02:41;4.70;;;2.90;;
58966;SDS011;44744;51.894;5.080;2022-07-12T01:03:43;4.20;;;2.70;;
58966;SDS011;44744;51.894;5.080;2022-07-12T01:06:19;4.70;;;3.00;;
58966;SDS011;44744;51.894;5.080;2022-07-12T01:07:23;4.80;;;2.90;;
58966;SDS011;44744;51.894;5.080;2022-07-12T01:08:26;3.50;;;2.80;;
58966;SDS011;44744;51.894;5.080;2022-07-12T01:10:28;3.40;;;2.80;;
58966;SDS011;44744;51.894;5.080;2022-07-12T01:11:30;3.40;;;3.00;;
58966;SDS011;44744;51.894;5.080;2022-07-12T01:12:31;3.60;;;2.70;;
58966;SDS011;44744;51.894;5.080;2022-07-12T01:13:31;3.50;;;2.70;;
58966;SDS011;44744;51.894;5.080;2022-07-12T01:14:35;4.30;;;2.80;;
58966;SDS011;44744;51.894;5.080;2022-07-12T01:15:35;4.10;;;3.00;;
58966;SDS011;44744;51.894;5.080;2022-07-12T01:16:36;3.40;;;2.90;;
58966;SDS011;44744;51.894;5.080;2022-07-12T01:17:37;4.20;;;2.60;;
58966;SDS011;44744;51.894;5.080;2022-07-12T01:18:39;3.20;;;2.70;;
58966;SDS011;44744;51.894;5.080;2022-07-12T01:19:43;5.20;;;3.20;;
58966;SDS011;44744;51.894;5.080;2022-07-12T01:20:44;3.10;;;2.60;;
58966;SDS011;44744;51.894;5.080;2022-07-12T01:21:46;3.80;;;3.00;;
58966;SDS011;44744;51.894;5.080;2022-07-12T01:22:56;4.30;;;2.90;;
58966;SDS011;44744;51.894;5.080;2022-07-12T01:24:00;3.50;;;2.90;;
58966;SDS011;44744;51.894;5.080;2022-07-12T01:25:10;3.30;;;2.70;;
58966;SDS011;44744;51.894;5.080;2022-07-12T01:26:23;4.80;;;2.80;;
58966;SDS011;44744;51.894;5.080;2022-07-12T01:27:23;3.60;;;2.90;;
58966;SDS011;44744;51.894;5.080;2022-07-12T01:28:23;4.10;;;3.20;;
58966;SDS011;44744;51.894;5.080;2022-07-12T01:29:24;3.80;;;3.30;;
58966;SDS011;44744;51.894;5.080;2022-07-12T01:30:26;8.10;;;3.70;;
58966;SDS011;44744;51.894;5.080;2022-07-12T01:31:26;4.10;;;3.40;;
58966;SDS011;44744;51.894;5.080;2022-07-12T01:32:30;3.80;;;3.30;;
58966;SDS011;44744;51.894;5.080;2022-07-12T01:33:31;4.40;;;3.50;;
58966;SDS011;44744;51.894;5.080;2022-07-12T01:34:32;3.40;;;3.00;;
58966;SDS011;44744;51.894;5.080;2022-07-12T01:35:33;4.70;;;3.30;;
58966;SDS011;44744;51.894;5.080;2022-07-12T01:36:33;4.20;;;3.50;;
58966;SDS011;44744;51.894;5.080;2022-07-12T01:37:36;4.00;;;3.60;;
58966;SDS011;44744;51.894;5.080;2022-07-12T01:38:40;4.40;;;3.20;;
58966;SDS011;44744;51.894;5.080;2022-07-12T01:39:42;3.90;;;3.50;;
58966;SDS011;44744;51.894;5.080;2022-07-12T01:40:53;4.10;;;3.50;;
58966;SDS011;44744;51.894;5.080;2022-07-12T01:41:53;4.90;;;3.30;;
58966;SDS011;44744;51.894;5.080;2022-07-12T01:42:53;4.10;;;3.40;;
58966;SDS011;44744;51.894;5.080;2022-07-12T01:43:54;3.90;;;3.20;;
58966;SDS011;44744;51.894;5.080;2022-07-12T01:45:00;4.30;;;3.40;;
58966;SDS011;44744;51.894;5.080;2022-07-12T01:46:00;7.10;;;3.00;;
58966;SDS011;44744;51.894;5.080;2022-07-12T01:47:01;3.80;;;2.70;;
58966;SDS011;44744;51.894;5.080;2022-07-12T01:48:02;5.10;;;3.30;;
58966;SDS011;44744;51.894;5.080;2022-07-12T01:49:04;3.90;;;3.10;;
58966;SDS011;44744;51.894;5.080;2022-07-12T01:50:05;5.60;;;3.00;;
58966;SDS011;44744;51.894;5.080;2022-07-12T01:51:10;3.30;;;2.70;;
58966;SDS011;44744;51.894;5.080;2022-07-12T01:52:13;4.00;;;3.30;;
58966;SDS011;44744;51.894;5.080;2022-07-12T01:53:15;5.40;;;3.30;;
58966;SDS011;44744;51.894;5.080;2022-07-12T01:54:16;5.40;;;4.00;;
58966;SDS011;44744;51.894;5.080;2022-07-12T01:55:16;8.30;;;4.80;;
58966;SDS011;44744;51.894;5.080;2022-07-12T01:56:17;5.90;;;4.80;;
58966;SDS011;44744;51.894;5.080;2022-07-12T01:57:18;6.20;;;4.90;;
58966;SDS011;44744;51.894;5.080;2022-07-12T01:58:19;6.90;;;5.00;;
58966;SDS011;44744;51.894;5.080;2022-07-12T01:59:20;9.00;;;6.10;;
58966;SDS011;44744;51.894;5.080;2022-07-12T02:00:21;6.70;;;5.30;;
58966;SDS011;44744;51.894;5.080;2022-07-12T02:01:22;5.40;;;4.70;;
58966;SDS011;44744;51.894;5.080;2022-07-12T02:02:26;6.80;;;5.30;;
58966;SDS011;44744;51.894;5.080;2022-07-12T02:03:27;9.40;;;5.00;;
58966;SDS011;44744;51.894;5.080;2022-07-12T02:04:29;6.80;;;5.00;;
58966;SDS011;44744;51.894;5.080;2022-07-12T02:05:30;7.20;;;5.30;;
58966;SDS011;44744;51.894;5.080;2022-07-12T02:06:33;5.70;;;5.10;;
58966;SDS011;44744;51.894;5.080;2022-07-12T02:07:44;6.80;;;5.00;;
58966;SDS011;44744;51.894;5.080;2022-07-12T02:08:45;5.70;;;4.80;;
58966;SDS011;44744;51.894;5.080;2022-07-12T02:09:46;6.50;;;4.90;;
58966;SDS011;44744;51.894;5.080;2022-07-12T02:10:46;8.10;;;5.60;;
58966;SDS011;44744;51.894;5.080;2022-07-12T02:11:49;7.00;;;5.20;;
58966;SDS011;44744;51.894;5.080;2022-07-12T02:13:05;7.30;;;5.40;;
58966;SDS011;44744;51.894;5.080;2022-07-12T02:14:09;6.40;;;4.80;;
58966;SDS011;44744;51.894;5.080;2022-07-12T02:15:13;6.00;;;5.00;;
58966;SDS011;44744;51.894;5.080;2022-07-12T02:16:13;7.20;;;6.20;;
58966;SDS011;44744;51.894;5.080;2022-07-12T02:17:14;6.50;;;5.20;;
58966;SDS011;44744;51.894;5.080;2022-07-12T02:18:14;7.00;;;5.10;;
58966;SDS011;44744;51.894;5.080;2022-07-12T02:19:17;5.90;;;5.00;;
58966;SDS011;44744;51.894;5.080;2022-07-12T02:20:20;6.00;;;5.10;;
58966;SDS011;44744;51.894;5.080;2022-07-12T02:21:21;7.40;;;5.00;;
58966;SDS011;44744;51.894;5.080;2022-07-12T02:22:22;7.00;;;5.10;;
58966;SDS011;44744;51.894;5.080;2022-07-12T02:24:35;5.90;;;5.00;;
58966;SDS011;44744;51.894;5.080;2022-07-12T02:25:39;5.80;;;4.50;;
58966;SDS011;44744;51.894;5.080;2022-07-12T02:26:47;5.40;;;4.50;;
58966;SDS011;44744;51.894;5.080;2022-07-12T02:27:48;6.70;;;4.80;;
58966;SDS011;44744;51.894;5.080;2022-07-12T02:28:50;5.10;;;4.40;;
58966;SDS011;44744;51.894;5.080;2022-07-12T02:32:24;5.10;;;3.80;;
58966;SDS011;44744;51.894;5.080;2022-07-12T02:33:25;5.10;;;4.30;;
58966;SDS011;44744;51.894;5.080;2022-07-12T02:34:25;5.50;;;4.20;;
58966;SDS011;44744;51.894;5.080;2022-07-12T02:35:26;8.20;;;4.40;;
58966;SDS011;44744;51.894;5.080;2022-07-12T02:36:29;4.50;;;4.00;;
58966;SDS011;44744;51.894;5.080;2022-07-12T02:37:30;5.80;;;3.90;;
58966;SDS011;44744;51.894;5.080;2022-07-12T02:38:31;5.70;;;4.40;;
58966;SDS011;44744;51.894;5.080;2022-07-12T02:39:31;6.40;;;4.20;;
58966;SDS011;44744;51.894;5.080;2022-07-12T02:40:37;5.30;;;4.30;;
58966;SDS011;44744;51.894;5.080;2022-07-12T02:41:37;4.70;;;3.90;;
58966;SDS011;44744;51.894;5.080;2022-07-12T02:42:38;5.40;;;4.30;;
58966;SDS011;44744;51.894;5.080;2022-07-12T02:43:44;5.20;;;4.50;;
58966;SDS011;44744;51.894;5.080;2022-07-12T02:44:44;4.30;;;3.90;;
58966;SDS011;44744;51.894;5.080;2022-07-12T02:45:44;4.70;;;4.00;;
58966;SDS011;44744;51.894;5.080;2022-07-12T02:46:45;4.80;;;4.30;;
58966;SDS011;44744;51.894;5.080;2022-07-12T02:48:16;3.70;;;3.40;;
58966;SDS011;44744;51.894;5.080;2022-07-12T02:49:22;5.20;;;3.90;;
58966;SDS011;44744;51.894;5.080;2022-07-12T02:50:44;4.80;;;4.10;;
58966;SDS011;44744;51.894;5.080;2022-07-12T02:52:54;4.10;;;3.50;;
58966;SDS011;44744;51.894;5.080;2022-07-12T02:53:54;5.90;;;4.40;;
58966;SDS011;44744;51.894;5.080;2022-07-12T02:54:55;4.50;;;4.10;;
58966;SDS011;44744;51.894;5.080;2022-07-12T02:55:58;5.10;;;3.70;;
58966;SDS011;44744;51.894;5.080;2022-07-12T02:56:59;7.40;;;3.70;;
58966;SDS011;44744;51.894;5.080;2022-07-12T02:57:59;3.60;;;3.20;;
58966;SDS011;44744;51.894;5.080;2022-07-12T02:59:00;5.50;;;3.50;;
58966;SDS011;44744;51.894;5.080;2022-07-12T03:00:05;4.60;;;3.90;;
58966;SDS011;44744;51.894;5.080;2022-07-12T03:01:08;4.20;;;3.80;;
58966;SDS011;44744;51.894;5.080;2022-07-12T03:02:09;5.10;;;4.10;;
58966;SDS011;44744;51.894;5.080;2022-07-12T03:03:12;5.20;;;4.00;;
58966;SDS011;44744;51.894;5.080;2022-07-12T03:04:13;4.10;;;3.60;;
58966;SDS011;44744;51.894;5.080;2022-07-12T03:05:13;4.00;;;3.60;;
58966;SDS011;44744;51.894;5.080;2022-07-12T03:06:13;10.50;;;4.30;;
58966;SDS011;44744;51.894;5.080;2022-07-12T03:07:17;4.80;;;3.80;;
58966;SDS011;44744;51.894;5.080;2022-07-12T03:08:17;4.80;;;3.30;;
58966;SDS011;44744;51.894;5.080;2022-07-12T03:09:18;4.20;;;3.60;;
58966;SDS011;44744;51.894;5.080;2022-07-12T03:10:18;4.80;;;4.10;;
58966;SDS011;44744;51.894;5.080;2022-07-12T03:11:19;5.00;;;4.20;;
58966;SDS011;44744;51.894;5.080;2022-07-12T03:12:19;4.30;;;3.80;;
58966;SDS011;44744;51.894;5.080;2022-07-12T03:13:22;5.20;;;3.50;;
58966;SDS011;44744;51.894;5.080;2022-07-12T03:14:22;6.50;;;4.10;;
58966;SDS011;44744;51.894;5.080;2022-07-12T03:15:23;9.50;;;4.20;;
58966;SDS011;44744;51.894;5.080;2022-07-12T03:16:23;5.10;;;3.80;;
58966;SDS011;44744;51.894;5.080;2022-07-12T03:17:23;5.00;;;4.10;;
58966;SDS011;44744;51.894;5.080;2022-07-12T03:18:32;4.40;;;3.90;;
58966;SDS011;44744;51.894;5.080;2022-07-12T03:19:38;5.30;;;4.00;;
58966;SDS011;44744;51.894;5.080;2022-07-12T03:20:39;4.50;;;3.90;;
58966;SDS011;44744;51.894;5.080;2022-07-12T03:21:42;5.00;;;4.30;;
58966;SDS011;44744;51.894;5.080;2022-07-12T03:22:42;4.40;;;3.90;;
58966;SDS011;44744;51.894;5.080;2022-07-12T03:23:46;5.00;;;4.20;;
58966;SDS011;44744;51.894;5.080;2022-07-12T03:24:46;4.80;;;4.30;;
58966;SDS011;44744;51.894;5.080;2022-07-12T03:27:07;5.20;;;4.30;;
58966;SDS011;44744;51.894;5.080;2022-07-12T03:28:08;4.30;;;3.90;;
58966;SDS011;44744;51.894;5.080;2022-07-12T03:29:08;4.90;;;4.30;;
58966;SDS011;44744;51.894;5.080;2022-07-12T03:30:12;5.90;;;4.20;;
58966;SDS011;44744;51.894;5.080;2022-07-12T03:31:13;8.40;;;4.50;;
58966;SDS011;44744;51.894;5.080;2022-07-12T03:33:33;5.20;;;4.70;;
58966;SDS011;44744;51.894;5.080;2022-07-12T03:34:36;5.30;;;4.50;;
58966;SDS011;44744;51.894;5.080;2022-07-12T03:35:36;5.90;;;4.90;;
58966;SDS011;44744;51.894;5.080;2022-07-12T03:36:43;5.80;;;4.50;;
58966;SDS011;44744;51.894;5.080;2022-07-12T03:38:47;5.50;;;4.50;;
58966;SDS011;44744;51.894;5.080;2022-07-12T03:39:48;5.60;;;4.90;;
58966;SDS011;44744;51.894;5.080;2022-07-12T03:40:49;5.00;;;4.30;;
58966;SDS011;44744;51.894;5.080;2022-07-12T03:41:49;6.00;;;5.00;;
58966;SDS011;44744;51.894;5.080;2022-07-12T03:42:52;5.90;;;5.20;;
58966;SDS011;44744;51.894;5.080;2022-07-12T03:43:53;5.30;;;4.50;;
58966;SDS011;44744;51.894;5.080;2022-07-12T03:44:56;5.20;;;3.90;;
58966;SDS011;44744;51.894;5.080;2022-07-12T03:45:57;5.00;;;4.30;;
58966;SDS011;44744;51.894;5.080;2022-07-12T03:46:57;5.10;;;4.60;;
58966;SDS011;44744;51.894;5.080;2022-07-12T03:48:00;4.70;;;4.20;;
58966;SDS011;44744;51.894;5.080;2022-07-12T03:49:00;7.20;;;5.10;;
58966;SDS011;44744;51.894;5.080;2022-07-12T03:50:06;5.60;;;4.80;;
58966;SDS011;44744;51.894;5.080;2022-07-12T03:51:09;5.30;;;4.70;;
58966;SDS011;44744;51.894;5.080;2022-07-12T03:52:09;6.00;;;4.50;;
58966;SDS011;44744;51.894;5.080;2022-07-12T03:53:09;5.50;;;4.70;;
58966;SDS011;44744;51.894;5.080;2022-07-12T03:55:35;5.70;;;4.50;;
58966;SDS011;44744;51.894;5.080;2022-07-12T03:56:46;6.90;;;4.30;;
58966;SDS011;44744;51.894;5.080;2022-07-12T03:57:48;6.10;;;4.40;;
58966;SDS011;44744;51.894;5.080;2022-07-12T03:58:48;4.90;;;4.20;;
58966;SDS011;44744;51.894;5.080;2022-07-12T03:59:49;5.60;;;4.50;;
58966;SDS011;44744;51.894;5.080;2022-07-12T04:00:49;5.30;;;4.50;;
58966;SDS011;44744;51.894;5.080;2022-07-12T04:01:50;5.10;;;4.60;;
58966;SDS011;44744;51.894;5.080;2022-07-12T04:02:50;7.70;;;4.40;;
58966;SDS011;44744;51.894;5.080;2022-07-12T04:03:51;5.90;;;4.40;;
58966;SDS011;44744;51.894;5.080;2022-07-12T04:04:51;5.80;;;4.00;;
58966;SDS011;44744;51.894;5.080;2022-07-12T04:05:54;4.60;;;4.10;;
58966;SDS011;44744;51.894;5.080;2022-07-12T04:06:59;4.40;;;4.00;;
58966;SDS011;44744;51.894;5.080;2022-07-12T04:07:59;4.50;;;4.00;;
58966;SDS011;44744;51.894;5.080;2022-07-12T04:09:05;5.20;;;3.60;;
58966;SDS011;44744;51.894;5.080;2022-07-12T04:10:11;3.60;;;3.10;;
58966;SDS011;44744;51.894;5.080;2022-07-12T04:14:00;3.50;;;2.90;;
58966;SDS011;44744;51.894;5.080;2022-07-12T04:15:06;10.50;;;3.30;;
58966;SDS011;44744;51.894;5.080;2022-07-12T04:16:10;3.90;;;3.10;;
58966;SDS011;44744;51.894;5.080;2022-07-12T04:17:10;3.30;;;2.80;;
58966;SDS011;44744;51.894;5.080;2022-07-12T04:18:17;3.20;;;2.60;;
58966;SDS011;44744;51.894;5.080;2022-07-12T04:19:19;3.80;;;2.80;;
58966;SDS011;44744;51.894;5.080;2022-07-12T04:20:22;3.50;;;3.10;;
58966;SDS011;44744;51.894;5.080;2022-07-12T04:21:30;3.50;;;3.20;;
58966;SDS011;44744;51.894;5.080;2022-07-12T04:22:31;4.20;;;3.10;;
58966;SDS011;44744;51.894;5.080;2022-07-12T04:23:31;3.90;;;3.50;;
58966;SDS011;44744;51.894;5.080;2022-07-12T04:24:56;4.90;;;4.10;;
58966;SDS011;44744;51.894;5.080;2022-07-12T04:25:55;6.20;;;5.60;;
58966;SDS011;44744;51.894;5.080;2022-07-12T04:26:59;6.00;;;5.20;;
58966;SDS011;44744;51.894;5.080;2022-07-12T04:27:59;6.30;;;5.50;;
58966;SDS011;44744;51.894;5.080;2022-07-12T04:29:00;6.20;;;5.60;;
58966;SDS011;44744;51.894;5.080;2022-07-12T04:30:03;7.30;;;6.60;;
58966;SDS011;44744;51.894;5.080;2022-07-12T04:31:04;7.60;;;6.80;;
58966;SDS011;44744;51.894;5.080;2022-07-12T04:32:14;7.00;;;6.30;;
58966;SDS011;44744;51.894;5.080;2022-07-12T04:33:15;7.90;;;6.80;;
58966;SDS011;44744;51.894;5.080;2022-07-12T04:36:10;9.70;;;6.10;;
58966;SDS011;44744;51.894;5.080;2022-07-12T04:37:10;9.30;;;6.10;;
58966;SDS011;44744;51.894;5.080;2022-07-12T04:38:11;6.70;;;5.80;;
58966;SDS011;44744;51.894;5.080;2022-07-12T04:39:11;6.70;;;6.00;;
58966;SDS011;44744;51.894;5.080;2022-07-12T04:40:12;10.10;;;7.20;;
58966;SDS011;44744;51.894;5.080;2022-07-12T04:41:12;7.80;;;6.40;;
58966;SDS011;44744;51.894;5.080;2022-07-12T04:42:13;6.20;;;5.60;;
58966;SDS011;44744;51.894;5.080;2022-07-12T04:43:15;7.40;;;6.00;;
58966;SDS011;44744;51.894;5.080;2022-07-12T04:44:16;9.10;;;7.00;;
58966;SDS011;44744;51.894;5.080;2022-07-12T04:45:17;7.70;;;7.00;;
58966;SDS011;44744;51.894;5.080;2022-07-12T04:46:17;8.20;;;6.20;;
58966;SDS011;44744;51.894;5.080;2022-07-12T04:47:18;6.30;;;5.60;;
58966;SDS011;44744;51.894;5.080;2022-07-12T04:48:18;8.70;;;5.50;;
58966;SDS011;44744;51.894;5.080;2022-07-12T04:49:21;6.10;;;5.50;;
58966;SDS011;44744;51.894;5.080;2022-07-12T04:50:27;5.70;;;5.10;;
58966;SDS011;44744;51.894;5.080;2022-07-12T04:51:27;6.00;;;5.00;;
58966;SDS011;44744;51.894;5.080;2022-07-12T04:52:49;5.40;;;4.90;;
58966;SDS011;44744;51.894;5.080;2022-07-12T04:53:49;6.70;;;5.60;;
58966;SDS011;44744;51.894;5.080;2022-07-12T04:55:00;5.60;;;5.10;;
58966;SDS011;44744;51.894;5.080;2022-07-12T04:56:04;7.90;;;5.50;;
58966;SDS011;44744;51.894;5.080;2022-07-12T04:57:04;9.30;;;6.50;;
58966;SDS011;44744;51.894;5.080;2022-07-12T04:58:04;7.00;;;6.10;;
58966;SDS011;44744;51.894;5.080;2022-07-12T04:59:05;7.00;;;6.30;;
58966;SDS011;44744;51.894;5.080;2022-07-12T05:00:08;7.30;;;6.40;;
58966;SDS011;44744;51.894;5.080;2022-07-12T05:01:09;8.10;;;7.10;;
58966;SDS011;44744;51.894;5.080;2022-07-12T05:02:09;7.40;;;6.70;;
58966;SDS011;44744;51.894;5.080;2022-07-12T05:03:10;7.70;;;6.80;;
58966;SDS011;44744;51.894;5.080;2022-07-12T05:04:13;8.70;;;7.90;;
58966;SDS011;44744;51.894;5.080;2022-07-12T05:05:19;8.20;;;7.40;;
58966;SDS011;44744;51.894;5.080;2022-07-12T05:06:23;10.20;;;7.40;;
58966;SDS011;44744;51.894;5.080;2022-07-12T05:07:24;7.10;;;6.40;;
58966;SDS011;44744;51.894;5.080;2022-07-12T05:08:36;10.20;;;7.90;;
58966;SDS011;44744;51.894;5.080;2022-07-12T05:09:36;8.50;;;7.70;;
58966;SDS011;44744;51.894;5.080;2022-07-12T05:10:39;8.70;;;7.70;;
58966;SDS011;44744;51.894;5.080;2022-07-12T05:11:40;9.20;;;7.60;;
58966;SDS011;44744;51.894;5.080;2022-07-12T05:12:40;9.40;;;7.30;;
58966;SDS011;44744;51.894;5.080;2022-07-12T05:13:40;8.40;;;7.60;;
58966;SDS011;44744;51.894;5.080;2022-07-12T05:14:45;8.00;;;7.20;;
58966;SDS011;44744;51.894;5.080;2022-07-12T05:15:45;10.70;;;8.30;;
58966;SDS011;44744;51.894;5.080;2022-07-12T05:16:48;12.70;;;7.40;;
58966;SDS011;44744;51.894;5.080;2022-07-12T05:17:51;8.80;;;7.70;;
58966;SDS011;44744;51.894;5.080;2022-07-12T05:18:51;9.30;;;8.50;;
58966;SDS011;44744;51.894;5.080;2022-07-12T05:19:55;9.60;;;8.30;;
58966;SDS011;44744;51.894;5.080;2022-07-12T05:20:55;12.30;;;8.60;;
58966;SDS011;44744;51.894;5.080;2022-07-12T05:21:56;10.20;;;9.20;;
58966;SDS011;44744;51.894;5.080;2022-07-12T05:22:56;10.70;;;8.70;;
58966;SDS011;44744;51.894;5.080;2022-07-12T05:23:56;16.80;;;9.10;;
58966;SDS011;44744;51.894;5.080;2022-07-12T05:24:57;12.90;;;9.80;;
58966;SDS011;44744;51.894;5.080;2022-07-12T05:25:57;9.70;;;8.80;;
58966;SDS011;44744;51.894;5.080;2022-07-12T05:27:04;11.20;;;9.30;;
58966;SDS011;44744;51.894;5.080;2022-07-12T05:28:07;11.50;;;8.30;;
58966;SDS011;44744;51.894;5.080;2022-07-12T05:29:08;9.00;;;8.10;;
58966;SDS011;44744;51.894;5.080;2022-07-12T05:31:38;10.20;;;8.70;;
58966;SDS011;44744;51.894;5.080;2022-07-12T05:32:38;9.70;;;8.40;;
58966;SDS011;44744;51.894;5.080;2022-07-12T05:34:00;8.60;;;7.80;;
58966;SDS011;44744;51.894;5.080;2022-07-12T05:35:02;11.90;;;8.10;;
58966;SDS011;44744;51.894;5.080;2022-07-12T05:36:06;8.60;;;7.80;;
58966;SDS011;44744;51.894;5.080;2022-07-12T05:37:06;8.90;;;7.90;;
58966;SDS011;44744;51.894;5.080;2022-07-12T05:38:06;11.20;;;8.30;;
58966;SDS011;44744;51.894;5.080;2022-07-12T05:39:07;9.70;;;8.10;;
58966;SDS011;44744;51.894;5.080;2022-07-12T05:40:07;12.40;;;8.20;;
58966;SDS011;44744;51.894;5.080;2022-07-12T05:41:08;11.60;;;8.30;;
58966;SDS011;44744;51.894;5.080;2022-07-12T05:42:12;9.50;;;7.70;;
58966;SDS011;44744;51.894;5.080;2022-07-12T05:43:12;9.50;;;8.50;;
58966;SDS011;44744;51.894;5.080;2022-07-12T05:44:20;10.60;;;8.30;;
58966;SDS011;44744;51.894;5.080;2022-07-12T05:45:23;13.40;;;8.10;;
58966;SDS011;44744;51.894;5.080;2022-07-12T05:46:35;8.80;;;7.60;;
58966;SDS011;44744;51.894;5.080;2022-07-12T05:47:39;10.00;;;7.80;;
58966;SDS011;44744;51.894;5.080;2022-07-12T05:48:51;8.40;;;7.50;;
58966;SDS011;44744;51.894;5.080;2022-07-12T05:51:25;8.10;;;7.20;;
58966;SDS011;44744;51.894;5.080;2022-07-12T05:52:25;8.50;;;7.70;;
58966;SDS011;44744;51.894;5.080;2022-07-12T05:53:29;8.20;;;7.40;;
58966;SDS011;44744;51.894;5.080;2022-07-12T05:57:36;7.30;;;6.60;;
58966;SDS011;44744;51.894;5.080;2022-07-12T05:58:39;7.40;;;6.70;;
58966;SDS011;44744;51.894;5.080;2022-07-12T05:59:42;9.00;;;6.50;;
58966;SDS011;44744;51.894;5.080;2022-07-12T06:01:27;9.40;;;6.50;;
58966;SDS011;44744;51.894;5.080;2022-07-12T06:02:27;8.20;;;6.10;;
58966;SDS011;44744;51.894;5.080;2022-07-12T06:03:33;8.20;;;5.90;;
58966;SDS011;44744;51.894;5.080;2022-07-12T06:04:42;9.70;;;6.50;;
58966;SDS011;44744;51.894;5.080;2022-07-12T06:05:45;9.30;;;7.40;;
58966;SDS011;44744;51.894;5.080;2022-07-12T06:06:50;11.30;;;7.80;;
58966;SDS011;44744;51.894;5.080;2022-07-12T06:07:51;9.80;;;8.70;;
58966;SDS011;44744;51.894;5.080;2022-07-12T06:08:51;9.40;;;8.20;;
58966;SDS011;44744;51.894;5.080;2022-07-12T06:09:52;10.30;;;8.60;;
58966;SDS011;44744;51.894;5.080;2022-07-12T06:12:19;8.60;;;7.50;;
58966;SDS011;44744;51.894;5.080;2022-07-12T06:13:19;10.30;;;7.80;;
58966;SDS011;44744;51.894;5.080;2022-07-12T06:14:28;10.50;;;7.50;;
58966;SDS011;44744;51.894;5.080;2022-07-12T06:15:29;8.80;;;8.00;;
58966;SDS011;44744;51.894;5.080;2022-07-12T06:16:29;8.20;;;7.40;;
58966;SDS011;44744;51.894;5.080;2022-07-12T06:17:30;11.60;;;8.30;;
58966;SDS011;44744;51.894;5.080;2022-07-12T06:18:30;9.00;;;7.80;;
58966;SDS011;44744;51.894;5.080;2022-07-12T06:19:30;10.10;;;9.00;;
58966;SDS011;44744;51.894;5.080;2022-07-12T06:20:31;9.20;;;8.10;;
58966;SDS011;44744;51.894;5.080;2022-07-12T06:21:31;10.30;;;7.80;;
58966;SDS011;44744;51.894;5.080;2022-07-12T06:22:43;11.80;;;9.30;;
58966;SDS011;44744;51.894;5.080;2022-07-12T06:23:48;10.70;;;8.20;;
58966;SDS011;44744;51.894;5.080;2022-07-12T06:24:49;11.60;;;8.90;;
58966;SDS011;44744;51.894;5.080;2022-07-12T06:25:49;12.30;;;8.10;;
58966;SDS011;44744;51.894;5.080;2022-07-12T06:26:50;9.60;;;8.00;;
58966;SDS011;44744;51.894;5.080;2022-07-12T06:28:00;11.40;;;7.80;;
58966;SDS011;44744;51.894;5.080;2022-07-12T06:29:04;8.70;;;7.60;;
58966;SDS011;44744;51.894;5.080;2022-07-12T06:30:05;10.30;;;8.50;;
58966;SDS011;44744;51.894;5.080;2022-07-12T06:31:36;11.00;;;8.30;;
58966;SDS011;44744;51.894;5.080;2022-07-12T06:33:18;10.20;;;8.30;;
58966;SDS011;44744;51.894;5.080;2022-07-12T06:36:17;9.40;;;7.40;;
58966;SDS011;44744;51.894;5.080;2022-07-12T06:37:30;9.20;;;7.20;;
58966;SDS011;44744;51.894;5.080;2022-07-12T06:40:23;8.10;;;7.30;;
58966;SDS011;44744;51.894;5.080;2022-07-12T06:51:07;8.60;;;7.70;;
58966;SDS011;44744;51.894;5.080;2022-07-12T06:57:11;9.30;;;8.00;;
58966;SDS011;44744;51.894;5.080;2022-07-12T06:58:11;9.80;;;7.60;;
58966;SDS011;44744;51.894;5.080;2022-07-12T07:05:24;8.80;;;7.90;;
58966;SDS011;44744;51.894;5.080;2022-07-12T07:08:38;9.20;;;7.90;;
58966;SDS011;44744;51.894;5.080;2022-07-12T07:12:44;9.90;;;8.60;;
58966;SDS011;44744;51.894;5.080;2022-07-12T07:26:37;10.10;;;8.80;;
58966;SDS011;44744;51.894;5.080;2022-07-12T07:27:41;10.00;;;8.90;;
58966;SDS011;44744;51.894;5.080;2022-07-12T07:28:53;10.80;;;9.70;;
58966;SDS011;44744;51.894;5.080;2022-07-12T07:30:03;10.60;;;9.50;;
58966;SDS011;44744;51.894;5.080;2022-07-12T07:31:16;11.30;;;9.70;;